Time;durP1;ratioP1;P1;durP2;ratioP2;P2;SDS_P1;SDS_P2;PMS_P1;PMS_P2;Temp;Humidity;BMP_temperature;BMP_pressure;BME280_temperature;BME280_humidity;BME280_pressure;Samples;Min_cycle;Max_cycle;Signal;HPM_P1;HPM_P2
2023/12/28 00:00:42;;;;;;;4.10;3.07;;;5.40;99.90;;;;;;4986480;28;20215;-74
2023/12/28 00:03:07;;;;;;;6.67;3.80;;;5.50;99.90;;;;;;4997102;28;20334;-74
2023/12/28 00:05:33;;;;;;;5.27;4.07;;;5.50;99.90;;;;;;4980603;28;20271;-74
2023/12/28 00:07:59;;;;;;;4.10;3.70;;;5.60;99.90;;;;;;5001224;28;20210;-74
2023/12/28 00:10:25;;;;;;;4.27;3.83;;;5.60;99.90;;;;;;4996210;28;20284;-74
2023/12/28 00:12:51;;;;;;;5.70;4.37;;;5.50;99.90;;;;;;4996065;28;20218;-73
2023/12/28 00:15:17;;;;;;;4.03;3.43;;;5.40;99.90;;;;;;4975899;28;20523;-74
2023/12/28 00:17:43;;;;;;;5.23;3.00;;;5.40;99.90;;;;;;5002589;28;20271;-74
2023/12/28 00:20:09;;;;;;;4.33;3.40;;;5.40;99.90;;;;;;4996637;28;20236;-74
2023/12/28 00:22:37;;;;;;;4.53;3.33;;;5.40;99.90;;;;;;4985559;28;20218;-74
2023/12/28 00:25:04;;;;;;;4.70;3.10;;;5.50;99.90;;;;;;4998469;28;21069;-74
2023/12/28 00:27:29;;;;;;;7.47;4.00;;;5.50;99.90;;;;;;4981942;28;20491;-74
2023/12/28 00:29:55;;;;;;;5.70;4.20;;;5.50;99.90;;;;;;4998932;28;20462;-74
2023/12/28 00:32:21;;;;;;;5.70;4.00;;;5.50;99.90;;;;;;4978286;28;20230;-74
2023/12/28 00:34:46;;;;;;;5.83;3.80;;;5.50;99.90;;;;;;4995332;28;20229;-74
2023/12/28 00:37:12;;;;;;;8.90;4.00;;;5.50;99.90;;;;;;5003657;28;20226;-74
2023/12/28 00:39:39;;;;;;;8.43;3.80;;;5.50;99.90;;;;;;4988602;28;20225;-74
2023/12/28 00:42:05;;;;;;;6.57;3.73;;;5.50;99.90;;;;;;4983294;28;20218;-73
2023/12/28 00:44:30;;;;;;;4.73;3.30;;;5.60;99.90;;;;;;4983464;28;20513;-74
2023/12/28 00:46:56;;;;;;;6.67;3.40;;;5.60;99.90;;;;;;4994622;28;20679;-75
2023/12/28 00:49:22;;;;;;;5.87;3.60;;;5.60;99.90;;;;;;4993345;28;20275;-74
2023/12/28 00:51:47;;;;;;;4.60;3.20;;;5.60;99.90;;;;;;5001198;28;20218;-74
2023/12/28 00:54:14;;;;;;;4.00;3.30;;;5.70;99.90;;;;;;5001311;28;20230;-75
2023/12/28 00:56:39;;;;;;;4.27;3.47;;;5.70;99.90;;;;;;4987711;28;20473;-74
2023/12/28 00:59:05;;;;;;;4.33;2.97;;;5.70;99.90;;;;;;4997220;28;20229;-74
2023/12/28 01:01:31;;;;;;;3.20;2.90;;;5.80;99.90;;;;;;4981145;28;20309;-74
2023/12/28 01:03:56;;;;;;;3.73;2.97;;;5.80;99.90;;;;;;4988348;28;20228;-74
2023/12/28 01:06:22;;;;;;;3.20;2.90;;;5.80;99.90;;;;;;4996910;28;20218;-74
2023/12/28 01:08:48;;;;;;;3.20;2.60;;;5.90;99.90;;;;;;4996704;28;20249;-74
2023/12/28 01:11:13;;;;;;;4.27;3.53;;;5.90;99.90;;;;;;4983967;28;20223;-74
2023/12/28 01:13:40;;;;;;;5.50;3.37;;;5.90;99.90;;;;;;4998962;28;20246;-75
2023/12/28 01:16:06;;;;;;;3.87;3.33;;;5.90;99.90;;;;;;4995880;28;20466;-74
2023/12/28 01:18:32;;;;;;;4.27;3.10;;;5.90;99.90;;;;;;4983984;28;20457;-74
2023/12/28 01:20:58;;;;;;;3.90;3.30;;;6.00;99.90;;;;;;5003771;28;20466;-74
2023/12/28 01:23:25;;;;;;;4.47;3.13;;;6.00;99.90;;;;;;5005899;28;20691;-75
2023/12/28 01:25:52;;;;;;;3.40;3.00;;;6.00;99.90;;;;;;4993183;28;20458;-74
2023/12/28 01:28:18;;;;;;;5.17;3.93;;;6.10;99.90;;;;;;5000089;28;20468;-74
2023/12/28 01:30:44;;;;;;;7.33;3.47;;;6.10;99.90;;;;;;4992206;28;20218;-74
2023/12/28 01:33:10;;;;;;;4.63;3.70;;;6.10;99.90;;;;;;4980431;28;20457;-74
2023/12/28 01:35:36;;;;;;;3.73;3.43;;;6.20;99.90;;;;;;4978767;28;20221;-74
2023/12/28 01:38:02;;;;;;;5.77;3.17;;;6.20;99.90;;;;;;4997925;28;20470;-74
2023/12/28 01:40:29;;;;;;;5.30;3.70;;;6.20;99.90;;;;;;4989035;28;20240;-74
2023/12/28 01:42:54;;;;;;;3.47;3.00;;;6.30;99.90;;;;;;4988963;28;20990;-74
2023/12/28 01:45:20;;;;;;;5.00;3.60;;;6.30;99.90;;;;;;4999620;28;20217;-75
2023/12/28 01:47:47;;;;;;;4.20;3.47;;;6.30;99.90;;;;;;4988583;28;20297;-74
2023/12/28 01:50:13;;;;;;;6.37;3.80;;;6.40;99.90;;;;;;4996118;28;20614;-74
2023/12/28 01:52:38;;;;;;;3.60;3.30;;;6.50;99.90;;;;;;4986802;28;20448;-74
2023/12/28 01:55:06;;;;;;;8.23;3.53;;;6.50;99.90;;;;;;4987267;28;20738;-73
2023/12/28 01:57:32;;;;;;;3.40;3.10;;;6.60;99.90;;;;;;4996933;28;20487;-74
2023/12/28 02:00:01;;;;;;;5.83;3.60;;;6.70;99.90;;;;;;4999160;28;20481;-74
2023/12/28 02:02:27;;;;;;;4.07;2.90;;;6.70;99.90;;;;;;4997048;28;20214;-74
2023/12/28 02:04:54;;;;;;;5.27;3.60;;;6.70;99.90;;;;;;4992373;28;20859;-75
2023/12/28 02:07:21;;;;;;;5.90;3.30;;;6.80;99.90;;;;;;4978440;28;20482;-74
2023/12/28 02:09:47;;;;;;;5.67;4.17;;;6.80;99.90;;;;;;4991397;28;20525;-74
2023/12/28 02:12:13;;;;;;;3.90;3.40;;;6.80;99.90;;;;;;4991422;28;20470;-74
2023/12/28 02:14:39;;;;;;;4.80;3.87;;;6.80;99.90;;;;;;4985632;28;20221;-74
2023/12/28 02:17:22;;;;;;;6.17;3.63;;;6.80;99.90;;;;;;4997560;28;20287;-74
2023/12/28 02:19:54;;;;;;;5.20;3.57;;;6.80;99.90;;;;;;4981051;28;20217;-73
2023/12/28 02:22:24;;;;;;;4.73;3.67;;;6.90;99.90;;;;;;4995503;28;20539;-74
2023/12/28 02:25:09;;;;;;;4.33;3.93;;;6.90;99.90;;;;;;5000673;28;20450;-74
2023/12/28 02:27:41;;;;;;;6.87;3.70;;;6.90;99.90;;;;;;4996662;28;20453;-74
2023/12/28 02:30:09;;;;;;;6.83;3.53;;;6.90;99.90;;;;;;4998074;28;20476;-74
2023/12/28 02:32:50;;;;;;;5.80;4.07;;;6.90;99.90;;;;;;5002743;28;20449;-74
2023/12/28 02:36:07;;;;;;;4.40;3.83;;;6.90;99.90;;;;;;4996928;28;20456;-75
2023/12/28 02:38:36;;;;;;;3.07;2.87;;;7.00;99.90;;;;;;4980599;28;20532;-74
2023/12/28 02:41:03;;;;;;;4.20;3.13;;;7.00;99.90;;;;;;5004049;28;20445;-74
2023/12/28 02:43:29;;;;;;;5.13;3.17;;;7.10;99.90;;;;;;5002837;28;20603;-74
2023/12/28 02:45:56;;;;;;;5.10;3.27;;;7.10;99.90;;;;;;4997850;28;20457;-74
2023/12/28 02:48:22;;;;;;;4.77;2.97;;;7.10;99.90;;;;;;5001817;28;20519;-74
2023/12/28 02:50:47;;;;;;;4.60;3.40;;;7.10;99.90;;;;;;4985736;28;20237;-74
2023/12/28 02:53:13;;;;;;;4.70;3.37;;;7.10;99.90;;;;;;4999837;28;20246;-73
2023/12/28 02:55:39;;;;;;;5.00;3.27;;;7.10;99.90;;;;;;4998149;28;20284;-73
2023/12/28 02:58:05;;;;;;;5.07;3.60;;;7.10;99.90;;;;;;4997512;28;20221;-73
2023/12/28 03:00:30;;;;;;;3.53;2.83;;;7.10;99.90;;;;;;5003183;28;20226;-75
2023/12/28 03:02:56;;;;;;;3.80;3.47;;;7.20;99.90;;;;;;4979233;28;20464;-73
2023/12/28 03:05:22;;;;;;;3.67;2.90;;;7.20;99.90;;;;;;4982885;28;20229;-74
2023/12/28 03:07:48;;;;;;;5.10;2.90;;;7.30;99.90;;;;;;4997315;28;20638;-74
2023/12/28 03:10:14;;;;;;;4.20;2.93;;;7.30;99.90;;;;;;4996112;28;20465;-74
2023/12/28 03:12:40;;;;;;;3.30;2.50;;;7.30;99.90;;;;;;4983260;28;20333;-74
2023/12/28 03:15:06;;;;;;;3.47;3.10;;;7.30;99.90;;;;;;4987341;28;20219;-74
2023/12/28 03:17:32;;;;;;;5.80;3.30;;;7.30;99.90;;;;;;4994595;28;20498;-74
2023/12/28 03:20:02;;;;;;;5.70;3.57;;;7.40;99.90;;;;;;4996440;28;20950;-74
2023/12/28 03:22:27;;;;;;;4.00;3.07;;;7.40;99.90;;;;;;4980215;28;20470;-74
2023/12/28 03:24:53;;;;;;;3.53;3.00;;;7.40;99.90;;;;;;4998856;28;20476;-74
2023/12/28 03:27:19;;;;;;;5.43;2.97;;;7.40;99.90;;;;;;5003102;28;20309;-74
2023/12/28 03:29:44;;;;;;;3.73;3.30;;;7.40;99.90;;;;;;4989726;28;20248;-74
2023/12/28 03:32:10;;;;;;;3.77;3.47;;;7.40;99.90;;;;;;4997312;28;20242;-74
2023/12/28 03:34:36;;;;;;;3.67;2.97;;;7.40;99.90;;;;;;5000150;28;20719;-74
2023/12/28 03:37:03;;;;;;;4.83;3.50;;;7.40;99.90;;;;;;4995938;28;20283;-74
2023/12/28 03:39:29;;;;;;;5.83;3.60;;;7.40;99.90;;;;;;4995732;28;20465;-74
2023/12/28 03:41:55;;;;;;;6.83;3.60;;;7.40;99.90;;;;;;4998104;28;20461;-74
2023/12/28 03:44:21;;;;;;;3.87;3.00;;;7.50;99.90;;;;;;5000391;28;20218;-74
2023/12/28 03:46:51;;;;;;;3.63;3.27;;;7.50;99.90;;;;;;4999849;28;20218;-74
2023/12/28 03:49:20;;;;;;;3.83;3.30;;;7.50;99.90;;;;;;4986039;28;20468;-74
2023/12/28 03:51:48;;;;;;;6.03;3.30;;;7.50;99.90;;;;;;4987423;28;20464;-75
2023/12/28 03:54:17;;;;;;;5.23;3.53;;;7.50;99.90;;;;;;4993234;28;20469;-74
2023/12/28 03:56:44;;;;;;;4.87;3.40;;;7.60;99.90;;;;;;4981015;28;20454;-73
2023/12/28 03:59:10;;;;;;;3.70;3.40;;;7.60;99.90;;;;;;4996160;28;20468;-74
2023/12/28 04:01:36;;;;;;;5.20;3.50;;;7.60;99.90;;;;;;4985822;28;21062;-74
2023/12/28 04:04:02;;;;;;;4.20;2.87;;;7.60;99.90;;;;;;4999108;28;20473;-74
2023/12/28 04:06:28;;;;;;;5.20;3.50;;;7.60;99.90;;;;;;4995531;28;20810;-74
2023/12/28 04:08:54;;;;;;;4.27;3.20;;;7.60;99.90;;;;;;4992378;28;20471;-74
2023/12/28 04:11:19;;;;;;;3.43;3.00;;;7.60;99.90;;;;;;4998088;28;20465;-75
2023/12/28 04:13:45;;;;;;;3.30;3.00;;;7.60;99.90;;;;;;4997805;28;20234;-74
2023/12/28 04:16:14;;;;;;;4.07;3.33;;;7.60;99.90;;;;;;4983116;28;20295;-74
2023/12/28 04:18:41;;;;;;;3.83;3.20;;;7.60;99.90;;;;;;4999852;28;20246;-74
2023/12/28 04:21:11;;;;;;;2.97;2.53;;;7.60;99.90;;;;;;4984064;28;20543;-74
2023/12/28 04:23:38;;;;;;;7.90;3.00;;;7.60;99.90;;;;;;5010817;28;20452;-74
2023/12/28 04:26:04;;;;;;;5.20;3.53;;;7.70;99.90;;;;;;5009342;28;20488;-74
2023/12/28 04:28:29;;;;;;;4.60;3.60;;;7.70;99.90;;;;;;5017609;28;20549;-74
2023/12/28 04:30:55;;;;;;;2.77;2.57;;;7.70;99.90;;;;;;5015935;28;20210;-73
2023/12/28 04:33:21;;;;;;;3.23;2.83;;;7.60;99.90;;;;;;5000665;28;20788;-74
2023/12/28 04:35:47;;;;;;;3.57;2.60;;;7.70;99.90;;;;;;5001311;28;20215;-74
2023/12/28 04:38:13;;;;;;;5.30;3.40;;;7.70;99.90;;;;;;4982492;28;20476;-74
2023/12/28 04:40:44;;;;;;;4.33;2.80;;;7.70;99.90;;;;;;4988951;28;20214;-76
2023/12/28 04:43:09;;;;;;;4.70;3.20;;;7.70;99.90;;;;;;4982251;28;20508;-74
2023/12/28 04:45:37;;;;;;;3.20;2.80;;;7.70;99.90;;;;;;4988406;28;20449;-75
2023/12/28 04:48:04;;;;;;;3.80;3.30;;;7.70;99.90;;;;;;4997535;28;20210;-74
2023/12/28 04:50:30;;;;;;;6.33;3.40;;;7.70;99.90;;;;;;4998040;28;20595;-75
2023/12/28 04:52:55;;;;;;;3.70;3.40;;;7.70;99.90;;;;;;4999212;28;20532;-74
2023/12/28 04:55:21;;;;;;;5.40;3.30;;;7.70;99.90;;;;;;4998156;28;20258;-75
2023/12/28 04:57:47;;;;;;;5.33;3.60;;;7.70;99.90;;;;;;4981331;28;20297;-73
2023/12/28 05:00:13;;;;;;;4.00;3.43;;;7.80;99.90;;;;;;4978289;28;20230;-74
2023/12/28 05:02:38;;;;;;;4.20;3.50;;;7.70;99.90;;;;;;4993959;28;20222;-74
2023/12/28 05:05:04;;;;;;;5.30;3.53;;;7.80;99.90;;;;;;5000168;28;20522;-75
2023/12/28 05:07:30;;;;;;;4.03;3.57;;;7.80;99.90;;;;;;4981790;28;20221;-74
2023/12/28 05:09:56;;;;;;;4.00;3.53;;;7.80;99.90;;;;;;4996065;28;20464;-74
2023/12/28 05:12:21;;;;;;;5.50;3.67;;;7.80;99.90;;;;;;5001144;28;20225;-74
2023/12/28 05:14:49;;;;;;;3.80;3.50;;;7.80;99.90;;;;;;4993142;28;20607;-73
2023/12/28 05:17:15;;;;;;;6.27;3.87;;;7.80;99.90;;;;;;4996069;28;20226;-75
2023/12/28 05:19:41;;;;;;;4.50;3.53;;;7.80;99.90;;;;;;4988954;28;20480;-73
2023/12/28 05:22:10;;;;;;;5.20;4.17;;;7.80;99.90;;;;;;4997859;28;20226;-74
2023/12/28 05:24:36;;;;;;;4.80;3.30;;;7.90;99.90;;;;;;5000675;28;20222;-74
2023/12/28 05:27:05;;;;;;;6.20;3.60;;;7.90;99.90;;;;;;4998041;28;20469;-76
2023/12/28 05:29:30;;;;;;;3.40;2.93;;;7.90;99.90;;;;;;4997616;28;20215;-76
2023/12/28 05:31:56;;;;;;;5.40;3.90;;;7.90;99.90;;;;;;4988639;28;20825;-74
2023/12/28 05:34:22;;;;;;;4.87;4.03;;;7.90;99.90;;;;;;4994637;28;20635;-74
2023/12/28 05:36:47;;;;;;;4.93;4.03;;;7.90;99.90;;;;;;4997812;28;20838;-75
2023/12/28 05:39:13;;;;;;;6.33;3.73;;;7.90;99.90;;;;;;5002496;28;20407;-74
2023/12/28 05:41:41;;;;;;;4.60;3.37;;;7.90;99.90;;;;;;4999237;28;20301;-74
2023/12/28 05:44:07;;;;;;;5.80;4.00;;;7.90;99.90;;;;;;4983265;28;20301;-75
2023/12/28 05:46:33;;;;;;;4.00;3.40;;;7.90;99.90;;;;;;4998536;28;20457;-74
2023/12/28 05:48:59;;;;;;;5.17;2.90;;;7.90;99.90;;;;;;4997178;28;20596;-75
2023/12/28 05:51:25;;;;;;;4.00;3.60;;;7.90;99.90;;;;;;5004163;28;20214;-74
2023/12/28 05:53:51;;;;;;;4.33;3.00;;;7.90;99.90;;;;;;5003515;28;20237;-75
2023/12/28 05:56:16;;;;;;;5.23;2.67;;;8.00;99.90;;;;;;4998806;28;20708;-74
2023/12/28 05:58:42;;;;;;;6.23;3.20;;;8.00;99.90;;;;;;4999542;28;20460;-74
2023/12/28 06:01:08;;;;;;;3.60;2.97;;;8.00;99.90;;;;;;5007267;28;20375;-74
2023/12/28 06:03:33;;;;;;;4.67;3.03;;;7.90;99.90;;;;;;4983088;28;20222;-74
2023/12/28 06:05:59;;;;;;;2.73;2.50;;;7.90;99.90;;;;;;4986673;28;20214;-75
2023/12/28 06:08:25;;;;;;;4.90;2.30;;;8.00;99.90;;;;;;5002037;28;20218;-74
2023/12/28 06:10:51;;;;;;;5.33;2.73;;;8.00;99.90;;;;;;5009294;28;20444;-74
2023/12/28 06:13:16;;;;;;;2.47;2.00;;;8.00;99.90;;;;;;5008179;28;20209;-74
2023/12/28 06:15:43;;;;;;;4.40;1.93;;;8.00;99.90;;;;;;4993053;28;20211;-74
2023/12/28 06:18:09;;;;;;;2.23;2.10;;;8.00;99.90;;;;;;4991376;28;20269;-75
2023/12/28 06:20:36;;;;;;;3.20;2.33;;;8.00;99.90;;;;;;4997662;28;20460;-74
2023/12/28 06:23:01;;;;;;;2.17;1.90;;;8.00;99.90;;;;;;4996862;28;20588;-74
2023/12/28 06:25:27;;;;;;;2.07;1.97;;;8.00;99.90;;;;;;5006780;28;20450;-74
2023/12/28 06:27:53;;;;;;;2.60;2.20;;;8.00;99.90;;;;;;4991318;28;20214;-74
2023/12/28 06:30:18;;;;;;;2.20;2.00;;;8.00;99.90;;;;;;4992730;28;20257;-74
2023/12/28 06:32:44;;;;;;;3.27;2.17;;;8.00;99.90;;;;;;4998574;28;20218;-74
2023/12/28 06:35:10;;;;;;;2.70;2.37;;;8.00;99.90;;;;;;4998941;28;20217;-74
2023/12/28 06:37:35;;;;;;;2.77;2.57;;;8.00;99.90;;;;;;5005331;28;20229;-74
2023/12/28 06:40:01;;;;;;;2.50;2.00;;;8.00;99.90;;;;;;4991078;28;20222;-74
2023/12/28 06:42:27;;;;;;;4.10;2.57;;;8.00;99.90;;;;;;4981288;28;20222;-74
2023/12/28 06:44:52;;;;;;;2.73;2.40;;;8.00;99.90;;;;;;4992311;28;20209;-75
2023/12/28 06:47:18;;;;;;;4.00;2.33;;;8.00;99.90;;;;;;4998517;28;20229;-74
2023/12/28 06:49:44;;;;;;;3.57;2.93;;;8.10;99.90;;;;;;4992305;28;20722;-74
2023/12/28 06:52:09;;;;;;;3.20;2.40;;;8.10;99.90;;;;;;4984414;28;20245;-75
2023/12/28 06:54:35;;;;;;;4.40;2.57;;;8.10;99.90;;;;;;5002252;28;20221;-74
2023/12/28 06:57:01;;;;;;;2.70;2.13;;;8.10;99.90;;;;;;5002690;28;20220;-75
2023/12/28 06:59:26;;;;;;;3.37;2.83;;;8.10;99.90;;;;;;4999114;28;20660;-74
2023/12/28 07:01:52;;;;;;;4.83;2.87;;;8.10;99.90;;;;;;4987463;28;20292;-74
2023/12/28 07:04:18;;;;;;;2.67;2.17;;;8.10;99.90;;;;;;5001650;28;20218;-74
2023/12/28 07:06:43;;;;;;;2.83;2.57;;;8.10;99.90;;;;;;4998352;28;20245;-74
2023/12/28 07:09:09;;;;;;;3.50;2.77;;;8.10;99.90;;;;;;4983978;28;20276;-75
2023/12/28 07:11:34;;;;;;;3.83;2.77;;;8.10;99.90;;;;;;4998745;28;20218;-74
2023/12/28 07:14:00;;;;;;;3.27;2.70;;;8.10;99.90;;;;;;5002994;28;20206;-74
2023/12/28 07:16:26;;;;;;;2.77;2.50;;;8.10;99.90;;;;;;4990069;28;20248;-75
2023/12/28 07:18:52;;;;;;;2.90;2.50;;;8.10;99.90;;;;;;5004283;28;20229;-74
2023/12/28 07:21:18;;;;;;;3.87;3.47;;;8.10;99.90;;;;;;4993241;28;20450;-74
2023/12/28 07:23:48;;;;;;;4.50;3.57;;;8.10;99.90;;;;;;5004967;28;20447;-74
2023/12/28 07:26:15;;;;;;;6.53;3.77;;;8.10;99.90;;;;;;5001156;28;20218;-74
2023/12/28 07:28:43;;;;;;;3.90;3.60;;;8.10;99.90;;;;;;4989478;28;20483;-74
2023/12/28 07:31:09;;;;;;;6.63;4.00;;;8.10;99.90;;;;;;5004946;28;20445;-74
2023/12/28 07:33:35;;;;;;;4.10;3.50;;;8.10;99.90;;;;;;4985086;28;20453;-75
2023/12/28 07:36:02;;;;;;;9.07;5.53;;;8.10;99.90;;;;;;4997682;28;20456;-74
2023/12/28 07:38:28;;;;;;;5.97;4.00;;;8.20;99.90;;;;;;4986953;28;20291;-74
2023/12/28 07:40:54;;;;;;;5.30;4.77;;;8.20;99.90;;;;;;5004849;28;20449;-74
2023/12/28 07:43:19;;;;;;;9.43;5.37;;;8.10;99.90;;;;;;4990351;28;20216;-74
2023/12/28 07:45:45;;;;;;;9.53;5.17;;;8.10;99.90;;;;;;4996546;28;20299;-74
2023/12/28 07:48:11;;;;;;;12.10;7.87;;;8.20;99.90;;;;;;4992466;28;20215;-75
2023/12/28 07:50:36;;;;;;;13.67;9.03;;;8.20;99.90;;;;;;4985171;28;20636;-74
2023/12/28 07:53:02;;;;;;;17.63;8.77;;;8.10;99.90;;;;;;5006854;28;20205;-74
2023/12/28 07:55:28;;;;;;;21.90;10.40;;;8.10;99.90;;;;;;4996205;28;20222;-74
2023/12/28 07:57:54;;;;;;;13.40;7.40;;;8.20;99.90;;;;;;4992330;28;20217;-75
2023/12/28 08:00:19;;;;;;;13.10;7.03;;;8.10;99.90;;;;;;4997472;28;20226;-75
2023/12/28 08:02:45;;;;;;;12.03;7.50;;;8.10;99.90;;;;;;4991724;28;20240;-74
2023/12/28 08:05:11;;;;;;;11.63;7.63;;;8.20;99.90;;;;;;5003429;28;20268;-74
2023/12/28 08:07:36;;;;;;;19.07;10.07;;;8.10;99.90;;;;;;5000277;28;20276;-74
2023/12/28 08:10:03;;;;;;;14.90;11.37;;;8.20;99.90;;;;;;5011532;28;20291;-74
2023/12/28 08:12:29;;;;;;;24.20;13.73;;;8.20;99.90;;;;;;5002378;28;20229;-74
2023/12/28 08:14:55;;;;;;;23.50;14.17;;;8.20;99.90;;;;;;5003306;28;20539;-75
2023/12/28 08:17:21;;;;;;;20.80;13.03;;;8.20;99.90;;;;;;5002612;28;20221;-74
2023/12/28 08:19:47;;;;;;;18.47;9.77;;;8.20;99.90;;;;;;5009429;28;20473;-75
2023/12/28 08:22:12;;;;;;;20.90;12.57;;;8.20;99.90;;;;;;4991814;28;20238;-74
2023/12/28 08:24:38;;;;;;;41.87;24.10;;;8.20;99.90;;;;;;5001534;28;20228;-74
2023/12/28 08:27:04;;;;;;;37.23;20.30;;;8.20;99.90;;;;;;5010960;28;20222;-74
2023/12/28 08:29:30;;;;;;;18.73;11.00;;;8.20;99.90;;;;;;5025392;28;20226;-74
2023/12/28 08:31:55;;;;;;;9.17;5.83;;;8.20;99.90;;;;;;4989104;28;20293;-74
2023/12/28 08:34:21;;;;;;;16.30;8.07;;;8.20;99.90;;;;;;4960982;28;20718;-74
2023/12/28 08:36:47;;;;;;;13.83;7.90;;;8.20;99.90;;;;;;4987603;28;20218;-74
2023/12/28 08:39:13;;;;;;;19.03;9.07;;;8.20;99.90;;;;;;4998445;28;20493;-75
2023/12/28 08:41:39;;;;;;;51.30;26.13;;;8.20;99.90;;;;;;5002968;28;20280;-74
2023/12/28 08:44:04;;;;;;;64.87;38.93;;;8.20;99.90;;;;;;4996801;28;20457;-74
2023/12/28 08:46:31;;;;;;;60.83;35.57;;;8.20;99.90;;;;;;4993306;28;20248;-74
2023/12/28 08:48:56;;;;;;;47.97;30.77;;;8.20;99.90;;;;;;4991058;28;20218;-74
2023/12/28 08:51:22;;;;;;;34.40;23.73;;;8.20;99.90;;;;;;4998115;28;20549;-74
2023/12/28 08:53:48;;;;;;;29.40;17.27;;;8.20;99.90;;;;;;4998043;28;20207;-74
2023/12/28 08:56:13;;;;;;;21.43;11.97;;;8.20;99.90;;;;;;5008618;28;20692;-74
2023/12/28 08:58:39;;;;;;;11.07;8.77;;;8.20;99.90;;;;;;5024457;28;20229;-74
2023/12/28 09:01:05;;;;;;;9.00;6.93;;;8.20;99.90;;;;;;5001728;28;20214;-74
2023/12/28 09:03:30;;;;;;;7.03;5.47;;;8.20;99.90;;;;;;4993855;28;20225;-74
2023/12/28 09:05:56;;;;;;;4.33;3.93;;;8.20;99.90;;;;;;5004541;28;20592;-75
2023/12/28 09:08:22;;;;;;;5.27;4.30;;;8.20;99.90;;;;;;4990595;28;20218;-75
2023/12/28 09:10:47;;;;;;;4.53;4.13;;;8.30;99.90;;;;;;5006607;28;20211;-74
2023/12/28 09:13:16;;;;;;;4.40;3.63;;;8.20;99.90;;;;;;5005763;28;20234;-74
2023/12/28 09:15:43;;;;;;;3.50;3.20;;;8.30;99.90;;;;;;5001527;28;20333;-75
2023/12/28 09:18:08;;;;;;;5.03;3.70;;;8.20;99.90;;;;;;5008694;28;20442;-74
2023/12/28 09:20:35;;;;;;;5.33;4.40;;;8.20;99.90;;;;;;4986414;28;20898;-74
2023/12/28 09:23:01;;;;;;;4.07;3.67;;;8.30;99.90;;;;;;5010384;28;20301;-74
2023/12/28 09:25:27;;;;;;;4.40;3.27;;;8.30;99.90;;;;;;5004600;28;20461;-74
2023/12/28 09:27:53;;;;;;;5.27;3.50;;;8.30;99.90;;;;;;5001674;28;20531;-74
2023/12/28 09:30:19;;;;;;;5.23;2.87;;;8.40;99.90;;;;;;4986172;28;20637;-74
2023/12/28 09:32:45;;;;;;;10.50;3.10;;;8.40;99.90;;;;;;4990565;28;20461;-74
2023/12/28 09:35:10;;;;;;;6.40;2.87;;;8.40;99.90;;;;;;5009438;28;20445;-75
2023/12/28 09:37:36;;;;;;;4.10;3.60;;;8.50;99.90;;;;;;4989821;28;20648;-74
2023/12/28 09:40:03;;;;;;;4.57;3.13;;;8.50;99.90;;;;;;4997294;28;20226;-75
2023/12/28 09:42:43;;;;;;;4.13;2.87;;;8.60;99.90;;;;;;4999320;28;20226;-74
2023/12/28 09:45:10;;;;;;;4.00;3.40;;;8.70;99.90;;;;;;4996723;28;20458;-75
2023/12/28 09:47:36;;;;;;;4.07;2.60;;;8.80;99.90;;;;;;5008492;28;20485;-74
2023/12/28 09:50:01;;;;;;;4.20;3.70;;;8.90;99.90;;;;;;5008961;28;20485;-74
2023/12/28 09:52:27;;;;;;;2.93;2.63;;;9.00;99.90;;;;;;5001815;28;20485;-74
2023/12/28 09:54:53;;;;;;;4.07;3.50;;;9.00;99.90;;;;;;4987272;28;20221;-74
2023/12/28 09:57:20;;;;;;;3.33;3.00;;;9.10;99.90;;;;;;5008815;28;20233;-74
2023/12/28 09:59:45;;;;;;;8.67;3.40;;;9.20;99.90;;;;;;4988432;28;20237;-74
2023/12/28 10:02:11;;;;;;;3.00;2.80;;;9.10;99.90;;;;;;4987951;28;20445;-74
2023/12/28 10:04:37;;;;;;;3.20;2.57;;;9.20;99.90;;;;;;4998043;28;20222;-74
2023/12/28 10:07:03;;;;;;;3.90;3.43;;;9.20;99.90;;;;;;4980748;28;20470;-74
2023/12/28 10:09:30;;;;;;;5.10;2.43;;;9.20;99.90;;;;;;5006359;28;21006;-75
2023/12/28 10:11:56;;;;;;;5.30;2.87;;;9.20;99.90;;;;;;4999043;28;20214;-74
2023/12/28 10:14:21;;;;;;;4.10;3.30;;;9.20;99.90;;;;;;5009077;28;20460;-74
2023/12/28 10:16:48;;;;;;;4.03;2.50;;;9.20;99.90;;;;;;5015998;28;20460;-74
2023/12/28 10:19:13;;;;;;;3.17;2.87;;;9.20;99.90;;;;;;5007392;28;20697;-75
2023/12/28 10:21:43;;;;;;;2.93;2.70;;;9.30;99.90;;;;;;4999905;28;20472;-74
2023/12/28 10:24:10;;;;;;;3.70;2.90;;;9.40;99.90;;;;;;5007686;28;20276;-74
2023/12/28 10:26:36;;;;;;;3.80;2.57;;;9.30;99.90;;;;;;4989867;28;20453;-74
2023/12/28 10:29:03;;;;;;;2.57;2.37;;;9.40;99.90;;;;;;5002164;28;20487;-74
2023/12/28 10:31:29;;;;;;;3.57;3.00;;;9.50;99.90;;;;;;5009680;28;20522;-75
2023/12/28 10:33:59;;;;;;;6.10;2.90;;;9.60;99.90;;;;;;4990689;28;20454;-74
2023/12/28 10:36:27;;;;;;;3.80;2.47;;;9.60;99.90;;;;;;5000182;28;20457;-75
2023/12/28 10:38:53;;;;;;;4.60;2.73;;;9.70;99.90;;;;;;4984455;28;20479;-73
2023/12/28 10:41:21;;;;;;;3.80;2.90;;;9.70;99.90;;;;;;5005084;28;20491;-75
2023/12/28 10:44:03;;;;;;;4.00;2.77;;;9.80;99.90;;;;;;4996107;28;20479;-74
2023/12/28 10:46:31;;;;;;;4.90;3.10;;;9.80;99.90;;;;;;4995264;28;20454;-75
2023/12/28 10:49:14;;;;;;;3.90;2.30;;;9.90;99.90;;;;;;5003586;28;20847;-74
2023/12/28 10:51:45;;;;;;;3.87;2.47;;;9.80;99.90;;;;;;4997795;28;20461;-74
2023/12/28 10:54:16;;;;;;;6.77;3.53;;;9.90;99.90;;;;;;5003165;28;20540;-75
2023/12/28 10:56:47;;;;;;;5.23;4.10;;;10.00;99.90;;;;;;4999340;28;20453;-75
2023/12/28 10:59:37;;;;;;;4.60;3.13;;;10.00;99.90;;;;;;5000967;28;20476;-75
2023/12/28 11:02:06;;;;;;;8.07;5.07;;;10.00;99.90;;;;;;5001958;28;20469;-74
2023/12/28 11:04:43;;;;;;;9.10;5.40;;;10.00;99.90;;;;;;4999406;28;20465;-74
2023/12/28 11:07:12;;;;;;;3.93;3.37;;;10.10;99.90;;;;;;5000635;28;20477;-74
2023/12/28 11:09:41;;;;;;;3.77;2.73;;;10.10;99.90;;;;;;5003605;28;20477;-74
2023/12/28 11:12:10;;;;;;;4.03;2.40;;;10.00;99.90;;;;;;4998460;28;20453;-74
2023/12/28 11:14:38;;;;;;;4.67;2.20;;;10.00;99.90;;;;;;4998638;28;20458;-75
2023/12/28 11:17:04;;;;;;;2.20;2.03;;;10.00;99.90;;;;;;5000096;28;20470;-73
2023/12/28 11:19:31;;;;;;;2.57;2.10;;;10.00;99.90;;;;;;4994830;28;20469;-75
2023/12/28 11:21:59;;;;;;;2.27;2.10;;;10.00;99.90;;;;;;4996497;28;20461;-73
2023/12/28 11:24:27;;;;;;;3.27;2.70;;;9.90;99.90;;;;;;4998685;28;20480;-74
2023/12/28 11:26:56;;;;;;;3.07;2.83;;;9.90;99.90;;;;;;4995402;28;20461;-74
2023/12/28 11:29:23;;;;;;;5.83;2.30;;;9.90;99.90;;;;;;4999944;28;20474;-74
2023/12/28 11:31:54;;;;;;;7.20;2.30;;;9.90;99.90;;;;;;4998423;28;20457;-74
2023/12/28 11:34:26;;;;;;;3.67;2.70;;;10.00;99.90;;;;;;4987662;28;20469;-74
2023/12/28 11:36:57;;;;;;;2.20;2.00;;;10.10;99.90;;;;;;4998007;28;20500;-75
2023/12/28 11:39:34;;;;;;;2.30;2.10;;;10.10;99.90;;;;;;4986344;28;20482;-75
2023/12/28 11:42:08;;;;;;;2.20;2.00;;;10.00;99.90;;;;;;4994313;28;20461;-74
2023/12/28 11:44:44;;;;;;;3.67;1.93;;;9.90;99.90;;;;;;4982077;28;20508;-73
2023/12/28 11:47:16;;;;;;;2.10;1.97;;;10.00;99.90;;;;;;5001327;28;20460;-74
2023/12/28 11:49:45;;;;;;;3.57;2.10;;;9.90;99.90;;;;;;4998874;28;20492;-74
2023/12/28 11:52:26;;;;;;;2.63;2.10;;;10.00;99.90;;;;;;4995912;28;20461;-74
2023/12/28 11:54:52;;;;;;;3.80;2.17;;;10.00;99.90;;;;;;5000899;28;20496;-73
2023/12/28 11:57:18;;;;;;;2.27;2.03;;;10.00;99.90;;;;;;4999924;28;20512;-73
2023/12/28 11:59:43;;;;;;;3.20;2.60;;;10.10;99.90;;;;;;4995249;28;20242;-73
2023/12/28 12:02:11;;;;;;;5.80;2.43;;;10.10;99.90;;;;;;5007976;28;20221;-74
2023/12/28 12:04:37;;;;;;;2.83;1.53;;;10.00;99.90;;;;;;5020708;28;20540;-73
2023/12/28 12:07:04;;;;;;;4.30;2.43;;;10.00;99.90;;;;;;5021021;28;20471;-73
2023/12/28 12:09:34;;;;;;;2.00;1.60;;;10.00;99.90;;;;;;5001319;28;20484;-73
2023/12/28 12:12:01;;;;;;;3.33;3.10;;;10.10;99.90;;;;;;4983623;28;20531;-74
2023/12/28 12:14:28;;;;;;;4.20;3.50;;;10.10;99.90;;;;;;4992611;28;20983;-73
2023/12/28 12:16:58;;;;;;;3.73;2.80;;;10.20;99.90;;;;;;4995189;28;20458;-73
2023/12/28 12:19:25;;;;;;;2.93;2.73;;;10.20;99.90;;;;;;4982140;28;20460;-73
2023/12/28 12:21:55;;;;;;;3.90;2.40;;;10.20;99.90;;;;;;4997491;28;20473;-75
2023/12/28 12:24:22;;;;;;;4.50;2.80;;;10.20;99.90;;;;;;4979008;28;20535;-73
2023/12/28 12:26:50;;;;;;;5.57;3.20;;;10.20;99.90;;;;;;4998187;28;20462;-73
2023/12/28 12:29:15;;;;;;;3.30;2.67;;;10.30;99.90;;;;;;4992556;28;21055;-74
2023/12/28 12:31:42;;;;;;;2.90;2.50;;;10.40;99.90;;;;;;4999467;28;20536;-74
2023/12/28 12:34:12;;;;;;;3.77;3.17;;;10.40;99.90;;;;;;4993390;28;20700;-74
2023/12/28 12:36:38;;;;;;;8.53;3.33;;;10.40;99.90;;;;;;4997989;28;20543;-74
2023/12/28 12:39:07;;;;;;;2.63;2.43;;;10.40;99.90;;;;;;4995632;28;20469;-73
2023/12/28 12:41:33;;;;;;;5.33;2.90;;;10.50;99.90;;;;;;5001273;28;20249;-73
2023/12/28 12:43:59;;;;;;;4.03;3.43;;;10.50;99.90;;;;;;5002148;28;20527;-74
2023/12/28 12:46:25;;;;;;;3.77;3.40;;;10.40;99.90;;;;;;5000535;28;20496;-74
2023/12/28 12:48:59;;;;;;;3.60;3.30;;;10.40;99.90;;;;;;5003246;28;20490;-74
2023/12/28 12:51:28;;;;;;;4.10;3.70;;;10.40;99.90;;;;;;5026523;28;20222;-74
2023/12/28 12:53:57;;;;;;;7.20;4.10;;;10.40;99.90;;;;;;5009436;28;20460;-74